Time;durP1;ratioP1;P1;durP2;ratioP2;P2;SDS_P1;SDS_P2;PMS_P1;PMS_P2;Temp;Humidity;BMP_temperature;BMP_pressure;BME280_temperature;BME280_humidity;BME280_pressure;Samples;Min_cycle;Max_cycle;Signal;HPM_P1;HPM_P2
2021/10/13 00:00:06;;;;;;;6.13;2.97;;;;;;;;;;5094639;28;20024;-84
2021/10/13 00:02:32;;;;;;;6.75;2.95;;;;;;;;;;5094700;28;20035;-85
2021/10/13 00:04:59;;;;;;;6.78;2.83;;;;;;;;;;5096332;28;20028;-85
2021/10/13 00:07:25;;;;;;;10.25;3.03;;;;;;;;;;5094530;28;20032;-85
2021/10/13 00:09:52;;;;;;;4.55;2.38;;;;;;;;;;5095731;28;20044;-85
2021/10/13 00:12:18;;;;;;;6.30;3.00;;;;;;;;;;5095589;28;20073;-85
2021/10/13 00:14:44;;;;;;;5.65;2.50;;;;;;;;;;5094385;28;20115;-85
2021/10/13 00:17:10;;;;;;;5.82;2.75;;;;;;;;;;5096072;28;20447;-86
2021/10/13 00:19:37;;;;;;;5.25;2.45;;;;;;;;;;5094315;28;20020;-85
2021/10/13 00:22:03;;;;;;;5.15;2.53;;;;;;;;;;5095461;28;20028;-86
2021/10/13 00:24:29;;;;;;;4.38;2.10;;;;;;;;;;5094148;28;20027;-85
2021/10/13 00:26:56;;;;;;;4.28;2.03;;;;;;;;;;5095377;28;20028;-85
2021/10/13 00:29:22;;;;;;;4.30;2.30;;;;;;;;;;5094043;28;20039;-85
2021/10/13 00:31:48;;;;;;;7.00;1.83;;;;;;;;;;5095850;28;20500;-85
2021/10/13 00:34:16;;;;;;;3.45;1.75;;;;;;;;;;5095773;28;20063;-85
2021/10/13 00:36:42;;;;;;;4.28;2.03;;;;;;;;;;5093955;28;20065;-85
2021/10/13 00:39:08;;;;;;;4.05;2.28;;;;;;;;;;5095745;28;20031;-85
2021/10/13 00:41:35;;;;;;;4.93;2.10;;;;;;;;;;5093723;28;20373;-85
2021/10/13 00:44:01;;;;;;;4.07;1.90;;;;;;;;;;5095116;28;20024;-85
2021/10/13 00:46:27;;;;;;;4.53;1.88;;;;;;;;;;5093737;28;20028;-86
2021/10/13 00:48:53;;;;;;;3.17;1.55;;;;;;;;;;5093739;28;20032;-85
2021/10/13 00:51:20;;;;;;;5.43;2.10;;;;;;;;;;5093607;28;20020;-85
2021/10/13 00:53:46;;;;;;;4.03;1.95;;;;;;;;;;5093678;28;20020;-86
2021/10/13 00:56:12;;;;;;;7.70;1.88;;;;;;;;;;5093359;28;20048;-85
2021/10/13 00:58:38;;;;;;;4.10;2.13;;;;;;;;;;5093528;28;20035;-85
2021/10/13 01:01:13;;;;;;;6.25;1.80;;;;;;;;;;5093429;28;20040;-85
2021/10/13 01:03:58;;;;;;;5.20;2.30;;;;;;;;;;5094726;28;20020;-87
2021/10/13 01:06:28;;;;;;;3.35;1.90;;;;;;;;;;5093360;28;20020;-85
2021/10/13 01:08:57;;;;;;;5.47;2.65;;;;;;;;;;5094635;28;20141;-85
2021/10/13 01:11:27;;;;;;;4.88;2.17;;;;;;;;;;5093265;28;20085;-84
2021/10/13 01:13:54;;;;;;;5.07;2.47;;;;;;;;;;5093301;28;20024;-85
2021/10/13 01:16:28;;;;;;;4.15;2.38;;;;;;;;;;5093177;28;20024;-86
2021/10/13 01:18:56;;;;;;;3.78;1.92;;;;;;;;;;5093179;28;20097;-84
2021/10/13 01:21:34;;;;;;;4.57;2.17;;;;;;;;;;5093021;28;20032;-86
2021/10/13 01:24:09;;;;;;;4.07;1.83;;;;;;;;;;5092101;28;20171;-85
2021/10/13 01:26:54;;;;;;;4.45;2.05;;;;;;;;;;5093033;28;20059;-85
2021/10/13 01:29:21;;;;;;;3.60;1.52;;;;;;;;;;5092966;28;20055;-85
2021/10/13 01:31:50;;;;;;;5.35;2.13;;;;;;;;;;5092969;28;20028;-85
2021/10/13 01:34:22;;;;;;;4.88;1.73;;;;;;;;;;5092867;28;20118;-86
2021/10/13 01:37:09;;;;;;;4.82;2.00;;;;;;;;;;5092827;28;20055;-85
2021/10/13 01:39:35;;;;;;;3.08;1.77;;;;;;;;;;5092654;28;20024;-85
2021/10/13 01:42:04;;;;;;;4.78;1.77;;;;;;;;;;5092902;28;20043;-85
2021/10/13 01:44:32;;;;;;;3.38;1.55;;;;;;;;;;5094520;28;20105;-85
2021/10/13 01:46:59;;;;;;;3.70;1.63;;;;;;;;;;5092680;28;20024;-85
2021/10/13 01:49:26;;;;;;;4.47;1.35;;;;;;;;;;5092636;28;20115;-85
2021/10/13 01:51:53;;;;;;;3.25;1.40;;;;;;;;;;5092628;28;20046;-85
2021/10/13 01:54:20;;;;;;;2.42;1.35;;;;;;;;;;5093832;28;20055;-85
2021/10/13 01:56:46;;;;;;;3.25;1.30;;;;;;;;;;5092160;28;20047;-85
2021/10/13 01:59:17;;;;;;;3.15;1.60;;;;;;;;;;5092506;28;20028;-85
2021/10/13 02:01:44;;;;;;;3.60;1.67;;;;;;;;;;5092370;28;20127;-85
2021/10/13 02:04:11;;;;;;;4.43;1.52;;;;;;;;;;5092501;28;20027;-85
2021/10/13 02:06:38;;;;;;;3.92;2.05;;;;;;;;;;5092463;28;20027;-85
2021/10/13 02:09:06;;;;;;;2.72;1.42;;;;;;;;;;5093663;28;20070;-86
2021/10/13 02:11:32;;;;;;;3.97;1.73;;;;;;;;;;5092399;28;20077;-86
2021/10/13 02:14:02;;;;;;;4.07;1.85;;;;;;;;;;5092300;28;20381;-85
2021/10/13 02:16:29;;;;;;;10.50;1.70;;;;;;;;;;5092308;28;20119;-85
2021/10/13 02:18:57;;;;;;;2.83;1.30;;;;;;;;;;5092334;28;20024;-86
2021/10/13 02:21:25;;;;;;;2.47;1.33;;;;;;;;;;5092182;28;20036;-84
2021/10/13 02:23:54;;;;;;;3.35;1.55;;;;;;;;;;5092229;28;20028;-85
2021/10/13 02:26:28;;;;;;;2.47;1.30;;;;;;;;;;5092256;28;20059;-85
2021/10/13 02:28:56;;;;;;;6.40;1.40;;;;;;;;;;5092245;28;20032;-85
2021/10/13 02:31:23;;;;;;;3.05;1.35;;;;;;;;;;5092143;28;20509;-85
2021/10/13 02:33:52;;;;;;;2.75;1.17;;;;;;;;;;5093501;28;20043;-86
2021/10/13 02:36:18;;;;;;;3.30;1.25;;;;;;;;;;5094852;28;20097;-85
2021/10/13 02:38:44;;;;;;;2.28;1.30;;;;;;;;;;5096351;28;20055;-87
2021/10/13 02:41:10;;;;;;;2.25;1.05;;;;;;;;;;5096121;28;20032;-86
2021/10/13 02:43:37;;;;;;;1.98;1.10;;;;;;;;;;5096139;28;20063;-85
2021/10/13 02:46:07;;;;;;;1.95;1.00;;;;;;;;;;5097345;28;20086;-85
2021/10/13 02:48:34;;;;;;;2.15;1.02;;;;;;;;;;5096044;28;20105;-85
2021/10/13 02:51:27;;;;;;;2.97;1.38;;;;;;;;;;5096027;28;20215;-85
2021/10/13 02:54:16;;;;;;;2.63;1.17;;;;;;;;;;5091203;28;20043;-85
2021/10/13 02:56:45;;;;;;;2.65;0.95;;;;;;;;;;5058356;28;20059;-85
2021/10/13 02:59:13;;;;;;;2.25;1.02;;;;;;;;;;5095864;28;20078;-85
2021/10/13 03:01:40;;;;;;;2.90;1.17;;;;;;;;;;5095710;28;20401;-86
2021/10/13 03:04:10;;;;;;;3.75;1.00;;;;;;;;;;5095822;28;20044;-85
2021/10/13 03:06:39;;;;;;;2.42;0.90;;;;;;;;;;5095677;28;20031;-85
2021/10/13 03:09:07;;;;;;;2.92;0.88;;;;;;;;;;5095624;28;20027;-85
2021/10/13 03:11:33;;;;;;;2.17;0.90;;;;;;;;;;5095591;28;20031;-86
2021/10/13 03:14:01;;;;;;;4.25;1.10;;;;;;;;;;5095609;28;20024;-86
2021/10/13 03:16:28;;;;;;;5.47;1.08;;;;;;;;;;5097408;28;20024;-85
2021/10/13 03:18:56;;;;;;;1.77;0.95;;;;;;;;;;5095410;28;20034;-86
2021/10/13 03:21:27;;;;;;;2.30;1.10;;;;;;;;;;5096588;28;20098;-86
2021/10/13 03:23:54;;;;;;;1.88;1.00;;;;;;;;;;5095388;28;20366;-85
2021/10/13 03:26:21;;;;;;;2.45;1.10;;;;;;;;;;5095384;28;20093;-85
2021/10/13 03:28:47;;;;;;;3.05;0.80;;;;;;;;;;5095291;28;20035;-85
2021/10/13 03:31:13;;;;;;;1.65;0.88;;;;;;;;;;5095251;28;20032;-86
2021/10/13 03:33:39;;;;;;;2.70;1.20;;;;;;;;;;5095182;28;20020;-86
2021/10/13 03:36:07;;;;;;;2.30;1.00;;;;;;;;;;5095135;28;20047;-86
2021/10/13 03:38:34;;;;;;;2.08;0.98;;;;;;;;;;5095044;28;20111;-86
2021/10/13 03:41:00;;;;;;;3.67;1.20;;;;;;;;;;5095022;28;20048;-85
2021/10/13 03:43:26;;;;;;;4.45;1.25;;;;;;;;;;5096268;28;20099;-85
2021/10/13 03:45:53;;;;;;;2.70;1.02;;;;;;;;;;5095009;28;20028;-85
2021/10/13 03:48:19;;;;;;;2.42;1.25;;;;;;;;;;5093822;28;20119;-85
2021/10/13 03:50:45;;;;;;;4.32;1.17;;;;;;;;;;5094890;28;20063;-86
2021/10/13 03:53:12;;;;;;;3.25;1.58;;;;;;;;;;5094864;28;20020;-85
2021/10/13 03:55:38;;;;;;;2.83;1.55;;;;;;;;;;5094350;28;20157;-85
2021/10/13 03:58:04;;;;;;;2.75;1.60;;;;;;;;;;5094750;28;20072;-85
2021/10/13 04:00:31;;;;;;;2.72;1.52;;;;;;;;;;5094631;28;20039;-85
2021/10/13 04:02:57;;;;;;;4.72;1.83;;;;;;;;;;5095868;28;20111;-85
2021/10/13 04:05:23;;;;;;;5.05;1.83;;;;;;;;;;5095850;28;20031;-85
2021/10/13 04:07:49;;;;;;;4.00;1.75;;;;;;;;;;5094510;28;20038;-85
2021/10/13 04:10:16;;;;;;;2.88;1.55;;;;;;;;;;5094497;28;20426;-85
2021/10/13 04:12:43;;;;;;;4.30;2.00;;;;;;;;;;5096274;28;20020;-85
2021/10/13 04:15:10;;;;;;;4.45;1.88;;;;;;;;;;5094725;28;20500;-86
2021/10/13 04:17:36;;;;;;;4.70;1.63;;;;;;;;;;5094366;28;20058;-85
2021/10/13 04:20:07;;;;;;;4.53;1.77;;;;;;;;;;5094338;28;20456;-87
2021/10/13 04:22:33;;;;;;;5.22;1.90;;;;;;;;;;5094411;28;20028;-85
2021/10/13 04:24:59;;;;;;;7.13;2.30;;;;;;;;;;5094250;28;20063;-85
2021/10/13 04:27:26;;;;;;;4.43;2.25;;;;;;;;;;5095477;28;20021;-85
2021/10/13 04:29:52;;;;;;;7.03;2.63;;;;;;;;;;5095497;28;20038;-85
2021/10/13 04:32:20;;;;;;;5.25;2.33;;;;;;;;;;5095430;28;20042;-85
2021/10/13 04:34:49;;;;;;;8.05;2.40;;;;;;;;;;5094035;28;20057;-86
2021/10/13 04:37:16;;;;;;;4.07;2.33;;;;;;;;;;5094054;28;20020;-85
2021/10/13 04:39:42;;;;;;;4.00;2.50;;;;;;;;;;5094086;28;20036;-85
2021/10/13 04:42:08;;;;;;;7.10;2.95;;;;;;;;;;5095350;28;20031;-88
2021/10/13 04:44:35;;;;;;;7.35;2.38;;;;;;;;;;5093886;28;20028;-86
2021/10/13 04:47:01;;;;;;;7.35;3.58;;;;;;;;;;5094144;28;20043;-85
2021/10/13 04:49:27;;;;;;;4.80;2.78;;;;;;;;;;5093975;28;20024;-83
2021/10/13 04:51:55;;;;;;;6.15;2.78;;;;;;;;;;5093758;28;20024;-85
2021/10/13 04:54:22;;;;;;;6.88;2.53;;;;;;;;;;5093666;28;20028;-86
2021/10/13 04:56:49;;;;;;;6.32;2.92;;;;;;;;;;5093259;28;20055;-85
2021/10/13 04:59:15;;;;;;;5.78;2.97;;;;;;;;;;5093492;28;20026;-84
2021/10/13 05:01:42;;;;;;;5.30;3.08;;;;;;;;;;5093459;28;20101;-84
2021/10/13 05:04:08;;;;;;;8.93;2.75;;;;;;;;;;5093769;28;20031;-85
2021/10/13 05:06:35;;;;;;;6.70;2.60;;;;;;;;;;5093693;28;20529;-91
2021/10/13 05:09:01;;;;;;;7.93;3.25;;;;;;;;;;5094999;28;20031;-87
2021/10/13 05:11:28;;;;;;;4.57;2.58;;;;;;;;;;5095069;28;20069;-91
2021/10/13 05:13:54;;;;;;;8.75;3.35;;;;;;;;;;5093734;28;20032;-86
2021/10/13 05:16:20;;;;;;;8.50;2.78;;;;;;;;;;5093452;28;20063;-92
2021/10/13 05:18:46;;;;;;;5.05;2.67;;;;;;;;;;5093671;28;20028;-86
2021/10/13 05:21:12;;;;;;;7.30;2.80;;;;;;;;;;5093532;28;20476;-85
2021/10/13 05:23:38;;;;;;;7.78;3.08;;;;;;;;;;5093463;28;20028;-87
2021/10/13 05:26:04;;;;;;;4.88;2.78;;;;;;;;;;5093193;28;20028;-88
2021/10/13 05:28:32;;;;;;;6.28;2.47;;;;;;;;;;5093051;28;20028;-87
2021/10/13 05:30:58;;;;;;;4.88;2.75;;;;;;;;;;5087514;28;20505;-85
2021/10/13 05:33:24;;;;;;;6.00;2.40;;;;;;;;;;5093056;28;20024;-85
2021/10/13 05:35:50;;;;;;;7.63;3.15;;;;;;;;;;5092690;28;20169;-85
2021/10/13 05:38:17;;;;;;;5.07;2.88;;;;;;;;;;5092619;28;20028;-85
2021/10/13 05:40:43;;;;;;;10.00;3.45;;;;;;;;;;5092749;28;20047;-86
2021/10/13 05:43:09;;;;;;;5.63;2.55;;;;;;;;;;5092698;28;20113;-86
2021/10/13 05:45:35;;;;;;;10.07;2.65;;;;;;;;;;5092334;28;20035;-85
2021/10/13 05:48:01;;;;;;;7.63;2.95;;;;;;;;;;5092348;28;20515;-85
2021/10/13 05:50:27;;;;;;;4.35;2.15;;;;;;;;;;5092470;28;20063;-85
2021/10/13 05:52:53;;;;;;;5.10;2.28;;;;;;;;;;5093887;28;20384;-85
2021/10/13 05:55:20;;;;;;;8.75;2.75;;;;;;;;;;5092141;28;20055;-85
2021/10/13 05:57:46;;;;;;;3.97;2.08;;;;;;;;;;5092271;28;20073;-85
2021/10/13 06:00:13;;;;;;;6.97;3.10;;;;;;;;;;5093494;28;20040;-86
2021/10/13 06:02:39;;;;;;;6.88;2.75;;;;;;;;;;5092434;28;20044;-85
2021/10/13 06:05:05;;;;;;;6.40;2.95;;;;;;;;;;5092298;28;20023;-85
2021/10/13 06:07:31;;;;;;;7.35;2.35;;;;;;;;;;5091952;28;20070;-85
2021/10/13 06:09:58;;;;;;;3.70;1.92;;;;;;;;;;5091733;28;20545;-85
2021/10/13 06:12:24;;;;;;;4.13;2.00;;;;;;;;;;5092305;28;20027;-86
2021/10/13 06:14:50;;;;;;;5.03;2.53;;;;;;;;;;5092304;28;20046;-85
2021/10/13 06:17:16;;;;;;;3.90;1.95;;;;;;;;;;5092243;28;20100;-86
2021/10/13 06:19:42;;;;;;;9.93;4.55;;;;;;;;;;5091890;28;20107;-85
2021/10/13 06:22:08;;;;;;;5.03;2.80;;;;;;;;;;5092140;28;20043;-86
2021/10/13 06:24:34;;;;;;;6.50;2.80;;;;;;;;;;5092290;28;20024;-86
2021/10/13 06:27:00;;;;;;;5.13;2.83;;;;;;;;;;5092191;28;20032;-86
2021/10/13 06:29:27;;;;;;;5.57;3.08;;;;;;;;;;5092211;28;20031;-86
2021/10/13 06:31:53;;;;;;;7.95;4.45;;;;;;;;;;5091630;28;20119;-83
2021/10/13 06:34:19;;;;;;;6.03;3.70;;;;;;;;;;5092177;28;20488;-84
2021/10/13 06:36:45;;;;;;;6.13;3.80;;;;;;;;;;5092028;28;20074;-84
2021/10/13 06:39:11;;;;;;;7.53;4.00;;;;;;;;;;5093226;28;20020;-84
2021/10/13 06:41:37;;;;;;;7.82;4.50;;;;;;;;;;5093462;28;20081;-83
2021/10/13 06:44:03;;;;;;;6.78;3.78;;;;;;;;;;5091894;28;20032;-86
2021/10/13 06:46:29;;;;;;;5.22;3.33;;;;;;;;;;5092014;28;20035;-86
2021/10/13 06:48:56;;;;;;;5.22;3.55;;;;;;;;;;5091975;28;20024;-87
2021/10/13 06:51:22;;;;;;;5.85;3.53;;;;;;;;;;5092114;28;20031;-87
2021/10/13 06:53:48;;;;;;;5.75;3.60;;;;;;;;;;5092105;28;20072;-84
2021/10/13 06:56:15;;;;;;;5.55;3.30;;;;;;;;;;5091725;28;20048;-87
2021/10/13 06:58:41;;;;;;;4.55;3.08;;;;;;;;;;5092123;28;20542;-88
2021/10/13 07:01:07;;;;;;;5.38;3.17;;;;;;;;;;5091896;28;20044;-86
2021/10/13 07:03:33;;;;;;;5.20;3.55;;;;;;;;;;5091508;28;20084;-86
2021/10/13 07:05:59;;;;;;;4.63;2.90;;;;;;;;;;5091762;28;20085;-88
2021/10/13 07:08:25;;;;;;;3.58;2.35;;;;;;;;;;5093578;28;20036;-92
2021/10/13 07:10:52;;;;;;;6.03;2.50;;;;;;;;;;5093087;28;20103;-91
2021/10/13 07:13:18;;;;;;;2.90;2.10;;;;;;;;;;5091917;28;20416;-86
2021/10/13 07:15:44;;;;;;;4.80;2.35;;;;;;;;;;5091855;28;20496;-89
2021/10/13 07:18:10;;;;;;;3.20;1.85;;;;;;;;;;5091667;28;20028;-86
2021/10/13 07:20:36;;;;;;;3.17;1.80;;;;;;;;;;5091627;28;20028;-86
2021/10/13 07:23:05;;;;;;;4.72;1.75;;;;;;;;;;5095088;28;20077;-87
2021/10/13 07:25:31;;;;;;;2.85;1.30;;;;;;;;;;5095295;28;20073;-92
2021/10/13 07:27:58;;;;;;;2.33;1.13;;;;;;;;;;5095799;28;20085;-91
2021/10/13 07:30:24;;;;;;;2.22;1.20;;;;;;;;;;5096598;28;20027;-86
2021/10/13 07:32:52;;;;;;;2.72;1.23;;;;;;;;;;5095424;28;20031;-90
2021/10/13 07:35:19;;;;;;;3.28;1.17;;;;;;;;;;5095354;28;20051;-87
2021/10/13 07:37:45;;;;;;;4.32;1.70;;;;;;;;;;5095328;28;20024;-91
2021/10/13 07:40:11;;;;;;;4.22;1.40;;;;;;;;;;5095064;28;20399;-88
2021/10/13 07:42:37;;;;;;;3.72;1.48;;;;;;;;;;5094886;28;20093;-87
2021/10/13 07:45:04;;;;;;;2.92;1.38;;;;;;;;;;5094885;28;20472;-89
2021/10/13 07:47:30;;;;;;;3.10;1.33;;;;;;;;;;5095146;28;20047;-89
2021/10/13 07:49:56;;;;;;;3.10;1.42;;;;;;;;;;5093988;28;20073;-85
2021/10/13 07:52:22;;;;;;;1.98;1.23;;;;;;;;;;5091493;28;20119;-89
2021/10/13 07:54:48;;;;;;;2.72;1.33;;;;;;;;;;5094558;28;20021;-87
2021/10/13 07:57:14;;;;;;;2.53;1.50;;;;;;;;;;5094863;28;20464;-90
2021/10/13 07:59:40;;;;;;;2.90;1.52;;;;;;;;;;5094857;28;20032;-85
2021/10/13 08:02:07;;;;;;;3.25;1.50;;;;;;;;;;5095990;28;20071;-85
2021/10/13 08:04:33;;;;;;;3.88;1.80;;;;;;;;;;5094987;28;20135;-88
2021/10/13 08:06:59;;;;;;;5.82;1.95;;;;;;;;;;5094751;28;20032;-86
2021/10/13 08:09:25;;;;;;;5.20;1.23;;;;;;;;;;5095189;28;20021;-89
2021/10/13 08:11:52;;;;;;;3.13;1.60;;;;;;;;;;5094717;28;20480;-87
2021/10/13 08:14:18;;;;;;;4.18;1.63;;;;;;;;;;5094563;28;20030;-86
2021/10/13 08:16:44;;;;;;;3.85;1.35;;;;;;;;;;5092239;28;20031;-89
2021/10/13 08:19:10;;;;;;;4.65;1.77;;;;;;;;;;5094222;28;20389;-88
2021/10/13 08:21:36;;;;;;;2.55;1.40;;;;;;;;;;5095534;28;20028;-87
2021/10/13 08:24:02;;;;;;;3.58;1.27;;;;;;;;;;5094282;28;20024;-86
2021/10/13 08:26:28;;;;;;;3.45;1.40;;;;;;;;;;5094149;28;20379;-88
2021/10/13 08:28:55;;;;;;;4.53;1.20;;;;;;;;;;5094080;28;20551;-86
2021/10/13 08:31:21;;;;;;;2.67;1.40;;;;;;;;;;5094343;28;20031;-86
2021/10/13 08:33:48;;;;;;;3.60;1.70;;;;;;;;;;5093554;28;20035;-86
2021/10/13 08:36:14;;;;;;;6.45;1.63;;;;;;;;;;5094267;28;20488;-85
2021/10/13 08:38:40;;;;;;;3.22;1.63;;;;;;;;;;5094086;28;20067;-86
2021/10/13 08:41:07;;;;;;;3.20;1.50;;;;;;;;;;5093871;28;20366;-87
2021/10/13 08:43:33;;;;;;;3.67;1.45;;;;;;;;;;5094115;28;20065;-88
2021/10/13 08:45:59;;;;;;;6.43;1.40;;;;;;;;;;5093932;28;20036;-83
2021/10/13 08:48:25;;;;;;;2.30;1.38;;;;;;;;;;5093873;28;20024;-83
2021/10/13 08:50:51;;;;;;;4.32;1.40;;;;;;;;;;5093827;28;20063;-84
2021/10/13 08:53:24;;;;;;;3.35;1.80;;;;;;;;;;5093849;28;20031;-89
2021/10/13 08:55:51;;;;;;;3.38;1.30;;;;;;;;;;5093301;28;20043;-83
2021/10/13 08:58:21;;;;;;;3.30;1.50;;;;;;;;;;5093582;28;20062;-83
2021/10/13 09:00:49;;;;;;;2.90;1.20;;;;;;;;;;5093409;28;20157;-86
2021/10/13 09:03:28;;;;;;;2.38;1.10;;;;;;;;;;5094681;28;20077;-91
2021/10/13 09:05:54;;;;;;;3.00;1.30;;;;;;;;;;5094770;28;20028;-87
2021/10/13 09:08:21;;;;;;;2.38;1.15;;;;;;;;;;5093519;28;20020;-88
2021/10/13 09:10:47;;;;;;;3.17;1.23;;;;;;;;;;5094799;28;20384;-92
2021/10/13 09:13:16;;;;;;;4.03;1.38;;;;;;;;;;5094563;28;20032;-87
2021/10/13 09:15:50;;;;;;;4.38;1.60;;;;;;;;;;5093549;28;20107;-91
2021/10/13 09:18:16;;;;;;;5.13;1.88;;;;;;;;;;5094814;28;20016;-87
2021/10/13 09:20:43;;;;;;;3.55;1.98;;;;;;;;;;5093226;28;20032;-85
2021/10/13 09:23:16;;;;;;;4.95;1.77;;;;;;;;;;5093326;28;20038;-86
2021/10/13 09:25:43;;;;;;;3.30;1.73;;;;;;;;;;5093357;28;20028;-91
2021/10/13 09:28:09;;;;;;;4.10;1.77;;;;;;;;;;5093294;28;20024;-86
2021/10/13 09:30:38;;;;;;;4.82;1.88;;;;;;;;;;5093351;28;20024;-90
2021/10/13 09:33:15;;;;;;;3.85;1.58;;;;;;;;;;5093148;28;20061;-91
2021/10/13 09:35:45;;;;;;;2.83;1.60;;;;;;;;;;5094652;28;20450;-88
2021/10/13 09:38:15;;;;;;;3.03;1.50;;;;;;;;;;5093354;28;20539;-89
2021/10/13 09:40:41;;;;;;;3.53;1.45;;;;;;;;;;5093309;28;20131;-90
2021/10/13 09:43:08;;;;;;;3.95;1.75;;;;;;;;;;5093217;28;20035;-91
2021/10/13 09:45:37;;;;;;;3.10;1.80;;;;;;;;;;5093550;28;20016;-85
2021/10/13 09:48:07;;;;;;;3.10;1.50;;;;;;;;;;5094209;28;20024;-91
2021/10/13 09:50:47;;;;;;;6.53;1.88;;;;;;;;;;5092853;28;20024;-85
2021/10/13 09:53:21;;;;;;;3.47;1.73;;;;;;;;;;5092919;28;20127;-86
2021/10/13 09:55:48;;;;;;;6.47;2.03;;;;;;;;;;5092898;28;20052;-91
2021/10/13 09:58:27;;;;;;;3.58;1.55;;;;;;;;;;5093138;28;20038;-85
2021/10/13 10:01:13;;;;;;;4.28;1.60;;;;;;;;;;5092772;28;20028;-84
2021/10/13 10:03:44;;;;;;;3.95;1.73;;;;;;;;;;5092813;28;20024;-87
2021/10/13 10:06:10;;;;;;;3.88;1.63;;;;;;;;;;5092734;28;20111;-85
2021/10/13 10:08:55;;;;;;;2.90;1.60;;;;;;;;;;5095786;28;20040;-86
2021/10/13 10:11:40;;;;;;;2.30;1.20;;;;;;;;;;5099735;28;20043;-84
2021/10/13 10:14:26;;;;;;;4.47;1.60;;;;;;;;;;5095295;28;20118;-87
2021/10/13 10:16:52;;;;;;;3.55;1.60;;;;;;;;;;5095097;28;20192;-84
2021/10/13 10:19:22;;;;;;;2.63;1.38;;;;;;;;;;5092512;28;20376;-92
2021/10/13 10:21:59;;;;;;;4.82;1.92;;;;;;;;;;5092418;28;20169;-86
2021/10/13 10:24:29;;;;;;;6.13;2.25;;;;;;;;;;5092706;28;20031;-86
2021/10/13 10:27:14;;;;;;;4.53;2.30;;;;;;;;;;5092517;28;20070;-90
2021/10/13 10:29:40;;;;;;;5.80;2.92;;;;;;;;;;5092536;28;20028;-85
2021/10/13 10:32:14;;;;;;;5.25;2.85;;;;;;;;;;5092769;28;20027;-92
2021/10/13 10:35:00;;;;;;;5.10;2.00;;;;;;;;;;5092891;28;20020;-91
2021/10/13 10:37:37;;;;;;;2.95;1.80;;;;;;;;;;5092651;28;20028;-87
2021/10/13 10:40:04;;;;;;;2.42;1.70;;;;;;;;;;5092725;28;20031;-92
2021/10/13 10:42:46;;;;;;;3.47;1.00;;;;;;;;;;5092481;28;20036;-91
2021/10/13 10:45:13;;;;;;;2.28;1.20;;;;;;;;;;5092401;28;20396;-91
2021/10/13 10:47:53;;;;;;;2.47;1.00;;;;;;;;;;5092196;28;20028;-86
2021/10/13 10:50:28;;;;;;;4.70;1.67;;;;;;;;;;5092356;28;20477;-92
2021/10/13 10:53:08;;;;;;;3.03;1.48;;;;;;;;;;5093535;28;20032;-85
2021/10/13 10:55:36;;;;;;;2.40;1.40;;;;;;;;;;5093248;28;20428;-87
2021/10/13 10:58:17;;;;;;;3.17;1.30;;;;;;;;;;5096105;28;20111;-86
2021/10/13 11:00:43;;;;;;;5.40;1.30;;;;;;;;;;5096991;28;20024;-86
2021/10/13 11:03:23;;;;;;;3.10;1.45;;;;;;;;;;5097308;28;20082;-85
2021/10/13 11:05:49;;;;;;;3.22;1.52;;;;;;;;;;5095798;28;20028;-88
2021/10/13 11:08:16;;;;;;;3.17;1.40;;;;;;;;;;5095991;28;20028;-83
2021/10/13 11:10:43;;;;;;;2.03;0.98;;;;;;;;;;5095867;28;20483;-90
2021/10/13 11:13:09;;;;;;;1.83;0.98;;;;;;;;;;5095727;28;20469;-86
2021/10/13 11:15:38;;;;;;;2.25;0.80;;;;;;;;;;5095695;28;20024;-89
2021/10/13 11:18:15;;;;;;;1.98;1.08;;;;;;;;;;5095635;28;20057;-89
2021/10/13 11:20:41;;;;;;;3.28;1.17;;;;;;;;;;5095825;28;20024;-88
2021/10/13 11:23:08;;;;;;;1.90;0.90;;;;;;;;;;5096925;28;20024;-86
2021/10/13 11:25:34;;;;;;;1.15;0.50;;;;;;;;;;5095940;28;20027;-86
2021/10/13 11:28:01;;;;;;;2.75;0.85;;;;;;;;;;5095715;28;20377;-85
2021/10/13 11:30:29;;;;;;;2.25;0.93;;;;;;;;;;5095644;28;20021;-92
2021/10/13 11:32:56;;;;;;;3.38;0.93;;;;;;;;;;5095745;28;20073;-91
2021/10/13 11:35:22;;;;;;;4.68;1.63;;;;;;;;;;5096858;28;20035;-90
2021/10/13 11:37:49;;;;;;;2.65;1.15;;;;;;;;;;5096334;28;20153;-93
2021/10/13 11:40:16;;;;;;;3.35;1.42;;;;;;;;;;5095650;28;20028;-88
2021/10/13 11:42:42;;;;;;;3.38;1.50;;;;;;;;;;5096606;28;20032;-86
2021/10/13 11:45:15;;;;;;;4.53;1.27;;;;;;;;;;5095439;28;20028;-87
2021/10/13 11:47:41;;;;;;;3.85;1.48;;;;;;;;;;5095296;28;20036;-85
2021/10/13 11:50:10;;;;;;;5.40;2.58;;;;;;;;;;5095888;28;20028;-89
2021/10/13 11:52:36;;;;;;;7.80;3.33;;;;;;;;;;5095014;28;20035;-88
2021/10/13 11:55:26;;;;;;;3.38;1.48;;;;;;;;;;5095942;28;20063;-90
2021/10/13 11:57:52;;;;;;;5.93;1.70;;;;;;;;;;5095004;28;20028;-85
2021/10/13 12:00:21;;;;;;;2.55;1.48;;;;;;;;;;5094828;28;20111;-88
2021/10/13 12:03:01;;;;;;;3.70;1.40;;;;;;;;;;5095987;28;20038;-91
2021/10/13 12:05:47;;;;;;;3.00;1.58;;;;;;;;;;5094893;28;20039;-85
2021/10/13 12:08:14;;;;;;;4.82;2.20;;;;;;;;;;5080812;28;20028;-85
2021/10/13 12:10:42;;;;;;;2.35;1.40;;;;;;;;;;5096719;28;20115;-91
2021/10/13 12:13:19;;;;;;;2.35;1.20;;;;;;;;;;5094525;28;20026;-86
2021/10/13 12:15:48;;;;;;;4.32;1.85;;;;;;;;;;5094446;28;20028;-86
2021/10/13 12:18:14;;;;;;;4.65;1.65;;;;;;;;;;5094453;28;20050;-88
2021/10/13 12:20:41;;;;;;;2.70;1.35;;;;;;;;;;5095743;28;20028;-87
2021/10/13 12:23:15;;;;;;;3.90;1.48;;;;;;;;;;5094149;28;20032;-86
2021/10/13 12:25:41;;;;;;;3.03;1.25;;;;;;;;;;5094308;28;20200;-86
2021/10/13 12:28:14;;;;;;;2.33;1.30;;;;;;;;;;5094536;28;20024;-85
2021/10/13 12:30:40;;;;;;;2.20;0.98;;;;;;;;;;5094328;28;20021;-92
2021/10/13 12:33:08;;;;;;;1.50;1.02;;;;;;;;;;5094083;28;20039;-85
2021/10/13 12:35:35;;;;;;;2.78;1.30;;;;;;;;;;5095412;28;20028;-87
2021/10/13 12:38:02;;;;;;;3.78;1.13;;;;;;;;;;5077312;28;20504;-87
2021/10/13 12:40:28;;;;;;;1.75;1.02;;;;;;;;;;5095277;28;20070;-91
2021/10/13 12:42:55;;;;;;;3.03;1.00;;;;;;;;;;5095432;28;20055;-88
2021/10/13 12:45:26;;;;;;;3.63;0.98;;;;;;;;;;5094379;28;20404;-87
2021/10/13 12:48:11;;;;;;;2.35;1.20;;;;;;;;;;5095300;28;20043;-90
2021/10/13 12:50:37;;;;;;;1.67;0.75;;;;;;;;;;5095370;28;20498;-88
2021/10/13 12:53:03;;;;;;;3.60;0.95;;;;;;;;;;5093958;28;20070;-89
2021/10/13 12:55:29;;;;;;;2.70;1.08;;;;;;;;;;5094887;28;20048;-91
2021/10/13 12:57:56;;;;;;;2.53;1.27;;;;;;;;;;5095336;28;20060;-88
2021/10/13 13:00:22;;;;;;;5.07;1.70;;;;;;;;;;5093634;28;20077;-87
2021/10/13 13:02:48;;;;;;;2.72;1.38;;;;;;;;;;5093583;28;20493;-86
2021/10/13 13:05:14;;;;;;;2.33;1.17;;;;;;;;;;5093353;28;20024;-86
2021/10/13 13:07:41;;;;;;;3.13;1.65;;;;;;;;;;5093442;28;20471;-86
2021/10/13 13:10:07;;;;;;;2.67;1.45;;;;;;;;;;5093369;28;20115;-85
2021/10/13 13:12:33;;;;;;;3.40;1.35;;;;;;;;;;5094591;28;20024;-86
2021/10/13 13:14:59;;;;;;;3.22;1.50;;;;;;;;;;5093294;28;20024;-86
2021/10/13 13:17:26;;;;;;;5.05;1.67;;;;;;;;;;5093295;28;20059;-85
2021/10/13 13:19:52;;;;;;;1.95;1.20;;;;;;;;;;5093150;28;20077;-86
2021/10/13 13:22:18;;;;;;;2.80;1.30;;;;;;;;;;5093369;28;20036;-86
2021/10/13 13:24:44;;;;;;;1.33;0.90;;;;;;;;;;5093057;28;20016;-86
2021/10/13 13:27:13;;;;;;;3.97;1.38;;;;;;;;;;5092986;28;20078;-86
2021/10/13 13:29:39;;;;;;;2.58;1.30;;;;;;;;;;5093023;28;20048;-86
2021/10/13 13:32:06;;;;;;;4.95;1.40;;;;;;;;;;5092971;28;20472;-86
2021/10/13 13:34:32;;;;;;;2.67;1.42;;;;;;;;;;5094178;28;20099;-86
2021/10/13 13:36:58;;;;;;;7.80;1.40;;;;;;;;;;5092765;28;20484;-85
2021/10/13 13:39:24;;;;;;;2.50;1.08;;;;;;;;;;5092879;28;20153;-85
2021/10/13 13:41:50;;;;;;;1.75;1.10;;;;;;;;;;5091723;28;20024;-84
2021/10/13 13:44:17;;;;;;;2.05;1.00;;;;;;;;;;5093782;28;20100;-86
2021/10/13 13:46:43;;;;;;;1.50;0.80;;;;;;;;;;5094317;28;20024;-86
2021/10/13 13:49:09;;;;;;;3.70;1.05;;;;;;;;;;5092665;28;20569;-86
2021/10/13 13:51:35;;;;;;;3.10;1.02;;;;;;;;;;5092629;28;20063;-85
2021/10/13 13:54:01;;;;;;;4.55;1.30;;;;;;;;;;5090591;28;20042;-88
2021/10/13 13:56:27;;;;;;;2.75;1.23;;;;;;;;;;5093622;28;20075;-88
2021/10/13 13:58:53;;;;;;;3.67;1.23;;;;;;;;;;5092972;28;20035;-90
2021/10/13 14:01:19;;;;;;;2.25;1.02;;;;;;;;;;5092809;28;20115;-88
2021/10/13 14:03:46;;;;;;;2.28;1.20;;;;;;;;;;5092952;28;20024;-90
2021/10/13 14:06:12;;;;;;;3.17;1.08;;;;;;;;;;5092677;28;20024;-89
2021/10/13 14:08:39;;;;;;;2.45;1.00;;;;;;;;;;5088479;28;20032;-88
2021/10/13 14:11:05;;;;;;;2.22;1.10;;;;;;;;;;5093839;28;20028;-88
2021/10/13 14:13:31;;;;;;;6.35;2.65;;;;;;;;;;5094153;28;20194;-91
2021/10/13 14:15:58;;;;;;;6.30;2.95;;;;;;;;;;5093637;28;20069;-88
2021/10/13 14:18:24;;;;;;;5.13;1.58;;;;;;;;;;5092520;28;20376;-87
2021/10/13 14:20:50;;;;;;;4.35;2.10;;;;;;;;;;5092359;28;20028;-88
2021/10/13 14:23:16;;;;;;;2.90;1.98;;;;;;;;;;5093598;28;20020;-88
2021/10/13 14:25:42;;;;;;;3.08;1.80;;;;;;;;;;5092895;28;20103;-91
2021/10/13 14:28:09;;;;;;;2.80;1.42;;;;;;;;;;5092475;28;20031;-89
2021/10/13 14:30:35;;;;;;;3.28;1.20;;;;;;;;;;5092314;28;20028;-89
2021/10/13 14:33:01;;;;;;;2.60;1.20;;;;;;;;;;5096309;28;20024;-88
2021/10/13 14:35:28;;;;;;;3.42;1.20;;;;;;;;;;5097744;28;20056;-88
2021/10/13 14:37:54;;;;;;;2.75;1.70;;;;;;;;;;5097855;28;20099;-88
2021/10/13 14:40:20;;;;;;;3.90;1.75;;;;;;;;;;5096710;28;20067;-87
2021/10/13 14:42:46;;;;;;;2.90;1.70;;;;;;;;;;5097864;28;20039;-86
2021/10/13 14:45:14;;;;;;;2.75;1.45;;;;;;;;;;5097590;28;20371;-89
2021/10/13 14:47:41;;;;;;;6.75;1.70;;;;;;;;;;5096397;28;20065;-87